Time;durP1;ratioP1;P1;durP2;ratioP2;P2;SDS_P1;SDS_P2;PMS_P1;PMS_P2;Temp;Humidity;BMP_temperature;BMP_pressure;BME280_temperature;BME280_humidity;BME280_pressure;Samples;Min_cycle;Max_cycle;Signal;HPM_P1;HPM_P2
2021/12/26 00:00:44;;;;;;;4.60;4.20;;;;;;;;;;5012039;28;21009;-56
2021/12/26 00:03:10;;;;;;;4.80;4.10;;;;;;;;;;5001592;28;20619;-56
2021/12/26 00:05:36;;;;;;;4.70;4.30;;;;;;;;;;5002143;28;20238;-56
2021/12/26 00:08:02;;;;;;;4.70;4.30;;;;;;;;;;5005014;28;20721;-56
2021/12/26 00:10:29;;;;;;;4.60;4.13;;;;;;;;;;4998459;28;20231;-56
2021/12/26 00:12:54;;;;;;;4.77;4.30;;;;;;;;;;4995018;28;21938;-57
2021/12/26 00:15:20;;;;;;;5.10;4.60;;;;;;;;;;4991358;28;21545;-56
2021/12/26 00:17:46;;;;;;;4.83;4.43;;;;;;;;;;4985530;28;20560;-56
2021/12/26 00:20:12;;;;;;;4.70;4.20;;;;;;;;;;4979247;28;20756;-57
2021/12/26 00:22:39;;;;;;;4.97;4.30;;;;;;;;;;4985763;28;20225;-57
2021/12/26 00:25:05;;;;;;;4.90;4.40;;;;;;;;;;4992778;28;20804;-56
2021/12/26 00:27:31;;;;;;;4.90;4.40;;;;;;;;;;4990506;28;20801;-57
2021/12/26 00:29:57;;;;;;;4.77;4.20;;;;;;;;;;4992756;28;20929;-57
2021/12/26 00:32:23;;;;;;;5.17;4.67;;;;;;;;;;4987825;28;20233;-57
2021/12/26 00:34:50;;;;;;;4.60;4.20;;;;;;;;;;4996787;28;20258;-56
2021/12/26 00:37:16;;;;;;;5.60;4.20;;;;;;;;;;4988923;28;20318;-57
2021/12/26 00:39:42;;;;;;;4.47;4.07;;;;;;;;;;4998395;28;20216;-57
2021/12/26 00:42:08;;;;;;;5.97;4.60;;;;;;;;;;4998035;28;21466;-57
2021/12/26 00:44:39;;;;;;;4.63;3.83;;;;;;;;;;4992716;28;20229;-57
2021/12/26 00:47:05;;;;;;;4.80;4.20;;;;;;;;;;4993714;28;21380;-57
2021/12/26 00:49:31;;;;;;;4.63;4.17;;;;;;;;;;5000687;28;20244;-57
2021/12/26 00:51:57;;;;;;;5.93;4.23;;;;;;;;;;4993726;28;20236;-57
2021/12/26 00:54:23;;;;;;;4.90;4.37;;;;;;;;;;4994833;28;20320;-57
2021/12/26 00:56:49;;;;;;;4.87;4.37;;;;;;;;;;4972074;28;20828;-57
2021/12/26 00:59:15;;;;;;;4.40;4.00;;;;;;;;;;4997535;28;20890;-57
2021/12/26 01:01:41;;;;;;;5.77;4.23;;;;;;;;;;4991181;28;20237;-56
2021/12/26 01:04:07;;;;;;;5.10;4.13;;;;;;;;;;4986722;28;20245;-56
2021/12/26 01:06:33;;;;;;;6.17;4.73;;;;;;;;;;4996624;28;20889;-57
2021/12/26 01:08:59;;;;;;;5.20;4.70;;;;;;;;;;5003218;28;20232;-56
2021/12/26 01:11:41;;;;;;;5.23;4.30;;;;;;;;;;4994105;28;20237;-57
2021/12/26 01:14:09;;;;;;;4.50;4.10;;;;;;;;;;4992117;28;21403;-57
2021/12/26 01:16:35;;;;;;;5.23;4.03;;;;;;;;;;5001314;28;20239;-57
2021/12/26 01:19:08;;;;;;;4.43;3.87;;;;;;;;;;4994466;28;20252;-57
2021/12/26 01:21:34;;;;;;;4.43;4.03;;;;;;;;;;4988012;28;20270;-57
2021/12/26 01:24:01;;;;;;;4.67;4.00;;;;;;;;;;5015888;28;21264;-57
2021/12/26 01:26:27;;;;;;;4.73;4.27;;;;;;;;;;5003492;28;20499;-57
2021/12/26 01:28:53;;;;;;;6.60;4.63;;;;;;;;;;5002412;28;20236;-57
2021/12/26 01:31:20;;;;;;;5.07;4.23;;;;;;;;;;5000688;28;20675;-56
2021/12/26 01:33:47;;;;;;;6.03;4.60;;;;;;;;;;4993733;28;20860;-57
2021/12/26 01:36:13;;;;;;;5.40;4.37;;;;;;;;;;4996894;28;20227;-56
2021/12/26 01:38:39;;;;;;;5.37;4.03;;;;;;;;;;4996224;28;20234;-57
2021/12/26 01:41:09;;;;;;;4.77;4.27;;;;;;;;;;5001235;28;21621;-56
2021/12/26 01:43:35;;;;;;;4.87;4.37;;;;;;;;;;4993623;28;20262;-57
2021/12/26 01:46:01;;;;;;;5.37;4.43;;;;;;;;;;4975304;28;20233;-57
2021/12/26 01:48:27;;;;;;;4.80;4.30;;;;;;;;;;4995413;28;20272;-57
2021/12/26 01:50:53;;;;;;;5.20;4.70;;;;;;;;;;4984222;28;20243;-56
2021/12/26 01:53:22;;;;;;;6.17;4.53;;;;;;;;;;4975632;28;20236;-56
2021/12/26 01:55:48;;;;;;;5.23;4.73;;;;;;;;;;4973062;28;20391;-56
2021/12/26 01:58:20;;;;;;;6.97;4.37;;;;;;;;;;4987665;28;26580;-57
2021/12/26 02:00:48;;;;;;;6.20;5.00;;;;;;;;;;4990134;28;20316;-56
2021/12/26 02:03:14;;;;;;;5.23;4.73;;;;;;;;;;4983751;28;20723;-57
2021/12/26 02:05:40;;;;;;;5.30;4.80;;;;;;;;;;4984784;28;20226;-56
2021/12/26 02:08:06;;;;;;;5.83;4.90;;;;;;;;;;4999883;28;20251;-57
2021/12/26 02:10:32;;;;;;;5.67;4.53;;;;;;;;;;5000572;28;20252;-57
2021/12/26 02:12:58;;;;;;;5.27;4.77;;;;;;;;;;4998745;28;20688;-57
2021/12/26 02:15:24;;;;;;;5.47;4.47;;;;;;;;;;4994842;28;20231;-56
2021/12/26 02:17:50;;;;;;;5.83;4.77;;;;;;;;;;5002715;28;20606;-56
2021/12/26 02:23:19;;;;;;;6.27;4.43;;;;;;;;;;5007493;28;20686;-56
2021/12/26 02:28:23;;;;;;;5.00;4.50;;;;;;;;;;4997095;28;20297;-56
2021/12/26 02:30:49;;;;;;;6.20;5.10;;;;;;;;;;4986532;28;20237;-56
2021/12/26 02:33:16;;;;;;;5.40;4.60;;;;;;;;;;4994108;28;21067;-56
2021/12/26 02:35:42;;;;;;;5.33;4.80;;;;;;;;;;4986526;28;20316;-56
2021/12/26 02:38:09;;;;;;;5.40;4.90;;;;;;;;;;4979513;28;20253;-57
2021/12/26 02:40:35;;;;;;;5.13;4.63;;;;;;;;;;4998064;28;20231;-57
2021/12/26 02:43:00;;;;;;;5.60;5.00;;;;;;;;;;4975169;28;21067;-56
2021/12/26 02:45:26;;;;;;;5.10;4.60;;;;;;;;;;4987036;28;20331;-57
2021/12/26 02:47:52;;;;;;;5.50;4.90;;;;;;;;;;4977548;28;21070;-56
2021/12/26 02:50:19;;;;;;;6.33;5.10;;;;;;;;;;4982253;28;20228;-56
2021/12/26 02:52:45;;;;;;;5.60;5.10;;;;;;;;;;4994931;28;20242;-56
2021/12/26 02:55:12;;;;;;;10.60;4.70;;;;;;;;;;4984080;28;20334;-56
2021/12/26 02:57:38;;;;;;;5.70;4.87;;;;;;;;;;4990173;28;20232;-56
2021/12/26 03:00:07;;;;;;;5.70;5.20;;;;;;;;;;5001688;28;20589;-57
2021/12/26 03:02:33;;;;;;;6.67;5.70;;;;;;;;;;5005043;28;20846;-57
2021/12/26 03:04:59;;;;;;;6.50;5.17;;;;;;;;;;4987884;28;20234;-57
2021/12/26 03:07:25;;;;;;;5.90;4.90;;;;;;;;;;4991669;28;20738;-56
2021/12/26 03:09:58;;;;;;;5.83;5.23;;;;;;;;;;4996894;28;20575;-56
2021/12/26 03:12:24;;;;;;;5.90;5.03;;;;;;;;;;4977958;28;20862;-57
2021/12/26 03:14:50;;;;;;;6.00;5.30;;;;;;;;;;4999264;28;21771;-56
2021/12/26 03:17:16;;;;;;;5.90;5.27;;;;;;;;;;4995328;28;20286;-56
2021/12/26 03:19:42;;;;;;;6.20;5.60;;;;;;;;;;4994654;28;20238;-57
2021/12/26 03:22:08;;;;;;;6.80;5.63;;;;;;;;;;4980250;28;20403;-56
2021/12/26 03:24:37;;;;;;;7.33;6.07;;;;;;;;;;5004685;28;20432;-56
2021/12/26 03:27:05;;;;;;;6.23;5.63;;;;;;;;;;5003144;28;20590;-56
2021/12/26 03:29:31;;;;;;;8.13;6.20;;;;;;;;;;4982354;28;20233;-56
2021/12/26 03:31:57;;;;;;;6.00;5.40;;;;;;;;;;4979876;28;20275;-57
2021/12/26 03:34:23;;;;;;;6.83;6.13;;;;;;;;;;4995414;28;20663;-56
2021/12/26 03:36:52;;;;;;;7.20;6.30;;;;;;;;;;4991612;28;20737;-56
2021/12/26 03:39:18;;;;;;;6.53;5.73;;;;;;;;;;4995379;28;20705;-56
2021/12/26 03:41:44;;;;;;;7.00;6.30;;;;;;;;;;4995620;28;20228;-56
2021/12/26 03:44:10;;;;;;;7.07;6.17;;;;;;;;;;4998350;28;21520;-57
2021/12/26 03:46:36;;;;;;;7.67;6.40;;;;;;;;;;5003386;28;20642;-56
2021/12/26 03:49:04;;;;;;;7.83;6.47;;;;;;;;;;5005626;28;20676;-56
2021/12/26 03:51:31;;;;;;;7.53;6.33;;;;;;;;;;5011727;28;20366;-57
2021/12/26 03:53:57;;;;;;;7.23;6.33;;;;;;;;;;4991655;28;20259;-56
2021/12/26 03:56:22;;;;;;;7.20;6.37;;;;;;;;;;5001107;28;20223;-57
2021/12/26 03:58:48;;;;;;;8.87;6.83;;;;;;;;;;5000996;28;20570;-56
2021/12/26 04:01:15;;;;;;;8.60;6.77;;;;;;;;;;4998828;28;20235;-56
2021/12/26 04:03:41;;;;;;;8.47;6.70;;;;;;;;;;5001585;28;20617;-56
2021/12/26 04:06:07;;;;;;;8.13;7.07;;;;;;;;;;5004924;28;20231;-57
2021/12/26 04:08:33;;;;;;;8.40;7.20;;;;;;;;;;5004324;28;20247;-56
2021/12/26 04:10:59;;;;;;;7.03;5.93;;;;;;;;;;4999384;28;20227;-56
2021/12/26 04:13:25;;;;;;;7.40;6.63;;;;;;;;;;4999601;28;21595;-57
2021/12/26 04:15:51;;;;;;;10.17;7.03;;;;;;;;;;4977690;28;20328;-56
2021/12/26 04:18:17;;;;;;;8.40;7.07;;;;;;;;;;4992695;28;20243;-57
2021/12/26 04:20:43;;;;;;;7.57;6.77;;;;;;;;;;4989112;28;20764;-56
2021/12/26 04:23:09;;;;;;;8.27;7.30;;;;;;;;;;5000412;28;20339;-56
2021/12/26 04:25:35;;;;;;;8.13;6.73;;;;;;;;;;4993845;28;20228;-56
2021/12/26 04:28:01;;;;;;;8.10;7.00;;;;;;;;;;5001651;28;20679;-56
2021/12/26 04:30:27;;;;;;;7.63;6.87;;;;;;;;;;4988471;28;20614;-56
2021/12/26 04:32:53;;;;;;;7.80;7.00;;;;;;;;;;4996175;28;20236;-56
2021/12/26 04:35:19;;;;;;;7.90;6.97;;;;;;;;;;5004538;28;20230;-56
2021/12/26 04:37:45;;;;;;;8.37;7.47;;;;;;;;;;5011222;28;20331;-56
2021/12/26 04:40:11;;;;;;;8.37;6.73;;;;;;;;;;5003639;28;20234;-56
2021/12/26 04:42:39;;;;;;;7.67;6.87;;;;;;;;;;4990022;28;20619;-56
2021/12/26 04:45:07;;;;;;;9.00;7.80;;;;;;;;;;5003138;28;20393;-56
2021/12/26 04:47:33;;;;;;;8.73;7.27;;;;;;;;;;4995961;28;22041;-57
2021/12/26 04:49:59;;;;;;;9.73;8.10;;;;;;;;;;4990811;28;20275;-56
2021/12/26 04:52:25;;;;;;;8.37;7.47;;;;;;;;;;4992474;28;20233;-56
2021/12/26 04:54:52;;;;;;;9.23;7.63;;;;;;;;;;4998211;28;20224;-56
2021/12/26 04:57:18;;;;;;;8.67;7.77;;;;;;;;;;5002336;28;20274;-57
2021/12/26 04:59:44;;;;;;;8.67;7.53;;;;;;;;;;4997216;28;20244;-56
2021/12/26 05:02:11;;;;;;;8.93;8.03;;;;;;;;;;4990917;28;20256;-56
2021/12/26 05:04:37;;;;;;;8.70;7.17;;;;;;;;;;4998148;28;20371;-56
2021/12/26 05:07:03;;;;;;;9.27;7.53;;;;;;;;;;4986415;28;20234;-56
2021/12/26 05:09:29;;;;;;;8.07;6.97;;;;;;;;;;5001785;28;20244;-56
2021/12/26 05:11:58;;;;;;;8.20;7.40;;;;;;;;;;4993159;28;20290;-56
2021/12/26 05:14:24;;;;;;;8.53;7.47;;;;;;;;;;4998480;28;20232;-56
2021/12/26 05:16:50;;;;;;;10.70;7.80;;;;;;;;;;5000193;28;20232;-56
2021/12/26 05:19:16;;;;;;;8.97;7.80;;;;;;;;;;5010073;28;20246;-56
2021/12/26 05:21:42;;;;;;;9.07;7.53;;;;;;;;;;4983092;28;20232;-56
2021/12/26 05:24:08;;;;;;;8.63;7.73;;;;;;;;;;5005415;28;20235;-56
2021/12/26 05:26:34;;;;;;;10.13;7.87;;;;;;;;;;5009253;28;20230;-56
2021/12/26 05:29:00;;;;;;;8.47;7.40;;;;;;;;;;4989865;28;20237;-56
2021/12/26 05:31:25;;;;;;;8.90;7.33;;;;;;;;;;5005884;28;20255;-56
2021/12/26 05:33:51;;;;;;;9.77;8.00;;;;;;;;;;5006197;28;20358;-57
2021/12/26 05:36:17;;;;;;;9.60;8.33;;;;;;;;;;5001897;28;20240;-56
2021/12/26 05:38:43;;;;;;;10.10;8.13;;;;;;;;;;4994372;28;20505;-56
2021/12/26 05:41:09;;;;;;;8.60;7.70;;;;;;;;;;4999461;28;20822;-56
2021/12/26 05:43:36;;;;;;;9.30;8.07;;;;;;;;;;4999673;28;20239;-57
2021/12/26 05:46:02;;;;;;;9.13;7.27;;;;;;;;;;4994666;28;20241;-56
2021/12/26 05:48:28;;;;;;;9.13;8.03;;;;;;;;;;5004381;28;20236;-57
2021/12/26 05:50:54;;;;;;;9.20;7.93;;;;;;;;;;4999495;28;20260;-57
2021/12/26 05:53:20;;;;;;;10.50;8.13;;;;;;;;;;5010776;28;20239;-56
2021/12/26 05:55:46;;;;;;;10.10;8.40;;;;;;;;;;5004744;28;20240;-56
2021/12/26 05:58:12;;;;;;;9.97;8.37;;;;;;;;;;5003515;28;20605;-56
2021/12/26 06:00:38;;;;;;;9.67;8.67;;;;;;;;;;4999466;28;20326;-56
2021/12/26 06:03:03;;;;;;;10.60;7.97;;;;;;;;;;4991511;28;20243;-56
2021/12/26 06:05:29;;;;;;;10.87;8.30;;;;;;;;;;4991796;28;20611;-56
2021/12/26 06:07:55;;;;;;;9.47;8.30;;;;;;;;;;4997113;28;20286;-56
2021/12/26 06:10:21;;;;;;;9.10;8.03;;;;;;;;;;4988018;28;20223;-57
2021/12/26 06:12:47;;;;;;;9.53;7.80;;;;;;;;;;4993231;28;20268;-57
2021/12/26 06:15:14;;;;;;;9.30;8.13;;;;;;;;;;5000824;28;20242;-56
2021/12/26 06:17:40;;;;;;;11.80;8.43;;;;;;;;;;5001679;28;20238;-56
2021/12/26 06:20:11;;;;;;;10.40;8.57;;;;;;;;;;5003988;28;20332;-56
2021/12/26 06:22:37;;;;;;;11.10;8.93;;;;;;;;;;5000207;28;20551;-56
2021/12/26 06:25:03;;;;;;;10.27;8.50;;;;;;;;;;4985438;28;20371;-56
2021/12/26 06:27:29;;;;;;;10.47;8.87;;;;;;;;;;4994860;28;20261;-56
2021/12/26 06:29:55;;;;;;;11.10;9.17;;;;;;;;;;4997587;28;20298;-56
2021/12/26 06:32:21;;;;;;;11.17;8.97;;;;;;;;;;4995352;28;20229;-56
2021/12/26 06:34:47;;;;;;;10.43;9.33;;;;;;;;;;5000283;28;20330;-56
2021/12/26 06:37:13;;;;;;;10.60;8.90;;;;;;;;;;5000558;28;20780;-56
2021/12/26 06:39:39;;;;;;;11.23;9.23;;;;;;;;;;5002201;28;20295;-56
2021/12/26 06:42:05;;;;;;;12.03;9.80;;;;;;;;;;5001050;28;20232;-56
2021/12/26 06:44:31;;;;;;;11.60;9.37;;;;;;;;;;4998816;28;20957;-56
2021/12/26 06:46:57;;;;;;;11.87;9.73;;;;;;;;;;5000644;28;20232;-56
2021/12/26 06:49:23;;;;;;;10.60;9.13;;;;;;;;;;5007297;28;20433;-56
2021/12/26 06:51:50;;;;;;;9.70;8.70;;;;;;;;;;5001976;28;21159;-56
2021/12/26 06:54:16;;;;;;;11.17;9.13;;;;;;;;;;4996933;28;20247;-56
2021/12/26 06:56:42;;;;;;;11.47;9.47;;;;;;;;;;4991511;28;20234;-56
2021/12/26 06:59:08;;;;;;;10.77;9.40;;;;;;;;;;4996423;28;20235;-56
2021/12/26 07:01:34;;;;;;;9.57;8.57;;;;;;;;;;5000991;28;20258;-56
2021/12/26 07:04:00;;;;;;;10.20;9.10;;;;;;;;;;4998815;28;20415;-56
2021/12/26 07:06:26;;;;;;;10.47;9.27;;;;;;;;;;5000103;28;20239;-56
2021/12/26 07:08:52;;;;;;;10.43;9.10;;;;;;;;;;4989728;28;20635;-57
2021/12/26 07:11:18;;;;;;;11.03;8.83;;;;;;;;;;4995639;28;20647;-56
2021/12/26 07:13:44;;;;;;;11.90;9.97;;;;;;;;;;4995569;28;20377;-56
2021/12/26 07:16:10;;;;;;;11.50;8.93;;;;;;;;;;4998597;28;20263;-56
2021/12/26 07:18:36;;;;;;;12.50;9.20;;;;;;;;;;4988401;28;20840;-57
2021/12/26 07:21:02;;;;;;;11.20;9.70;;;;;;;;;;5001993;28;20421;-56
2021/12/26 07:23:28;;;;;;;12.57;9.43;;;;;;;;;;5008409;28;20244;-56
2021/12/26 07:25:54;;;;;;;11.90;8.87;;;;;;;;;;5006060;28;20334;-56
2021/12/26 07:28:20;;;;;;;9.90;8.90;;;;;;;;;;5009635;28;20357;-56
2021/12/26 07:30:46;;;;;;;11.13;9.40;;;;;;;;;;5015301;28;20247;-56
2021/12/26 07:33:12;;;;;;;12.03;10.03;;;;;;;;;;5008174;28;20736;-56
2021/12/26 07:35:38;;;;;;;12.27;9.63;;;;;;;;;;5003135;28;20232;-56
2021/12/26 07:38:04;;;;;;;10.67;9.37;;;;;;;;;;5005284;28;20327;-56
2021/12/26 07:40:29;;;;;;;11.60;9.43;;;;;;;;;;4992594;28;20502;-56
2021/12/26 07:42:55;;;;;;;11.63;9.17;;;;;;;;;;4996679;28;21399;-56
2021/12/26 07:45:21;;;;;;;12.23;10.10;;;;;;;;;;5013781;28;20224;-56
2021/12/26 07:47:47;;;;;;;11.50;9.33;;;;;;;;;;5011204;28;20326;-56
2021/12/26 07:50:13;;;;;;;11.77;9.23;;;;;;;;;;5019021;28;20244;-56
2021/12/26 07:52:42;;;;;;;11.30;9.77;;;;;;;;;;5010949;28;20715;-56
2021/12/26 07:55:11;;;;;;;12.40;9.27;;;;;;;;;;4996888;28;20560;-56
2021/12/26 07:57:37;;;;;;;12.07;9.50;;;;;;;;;;5004723;28;20242;-56
2021/12/26 08:00:04;;;;;;;10.37;8.80;;;;;;;;;;5007295;28;20291;-56
2021/12/26 08:02:30;;;;;;;11.57;9.50;;;;;;;;;;5012101;28;20787;-56
2021/12/26 08:04:56;;;;;;;11.20;9.57;;;;;;;;;;5007646;28;21986;-57
2021/12/26 08:07:22;;;;;;;11.67;9.63;;;;;;;;;;4998176;28;20733;-57
2021/12/26 08:09:48;;;;;;;12.67;10.20;;;;;;;;;;4995178;28;20239;-56
2021/12/26 08:12:14;;;;;;;11.90;9.63;;;;;;;;;;5001958;28;20231;-56
2021/12/26 08:14:40;;;;;;;11.97;9.93;;;;;;;;;;5009783;28;20704;-56
2021/12/26 08:17:06;;;;;;;12.10;9.97;;;;;;;;;;5005588;28;20228;-57
2021/12/26 08:19:32;;;;;;;11.67;9.87;;;;;;;;;;5003731;28;20271;-56
2021/12/26 08:21:58;;;;;;;11.87;9.80;;;;;;;;;;5002574;28;20353;-57
2021/12/26 08:24:26;;;;;;;11.30;9.30;;;;;;;;;;4993827;28;20300;-56
2021/12/26 08:26:52;;;;;;;12.33;9.80;;;;;;;;;;5004717;28;20282;-56
2021/12/26 08:29:21;;;;;;;12.07;9.73;;;;;;;;;;5003524;28;20272;-57
2021/12/26 08:31:47;;;;;;;11.83;9.00;;;;;;;;;;5017327;28;20689;-57
2021/12/26 08:34:19;;;;;;;11.30;9.47;;;;;;;;;;5005854;28;20242;-56
2021/12/26 08:36:45;;;;;;;14.53;9.70;;;;;;;;;;5020366;28;20235;-61
2021/12/26 08:39:11;;;;;;;11.57;9.23;;;;;;;;;;5009468;28;20305;-56
2021/12/26 08:41:37;;;;;;;11.70;9.47;;;;;;;;;;5017314;28;20830;-56
2021/12/26 08:44:03;;;;;;;12.77;9.60;;;;;;;;;;5015046;28;20235;-57
2021/12/26 08:46:29;;;;;;;12.03;10.20;;;;;;;;;;5002664;28;20239;-57
2021/12/26 08:48:55;;;;;;;12.77;9.70;;;;;;;;;;5000887;28;20279;-57
2021/12/26 08:51:21;;;;;;;13.73;10.30;;;;;;;;;;5001292;28;20728;-57
2021/12/26 08:53:47;;;;;;;11.63;10.20;;;;;;;;;;4988792;28;20233;-57
2021/12/26 08:56:13;;;;;;;11.67;9.63;;;;;;;;;;4998558;28;20575;-57
2021/12/26 08:58:39;;;;;;;12.73;10.40;;;;;;;;;;5008595;28;20517;-57
2021/12/26 09:01:05;;;;;;;12.40;9.47;;;;;;;;;;4994125;28;20238;-57
2021/12/26 09:03:31;;;;;;;11.53;9.57;;;;;;;;;;5009055;28;20229;-57
2021/12/26 09:05:56;;;;;;;14.40;10.87;;;;;;;;;;4986709;28;20626;-56
2021/12/26 09:08:22;;;;;;;11.47;9.80;;;;;;;;;;4996728;28;20237;-57
2021/12/26 09:10:48;;;;;;;11.33;9.73;;;;;;;;;;5005657;28;20216;-57
2021/12/26 09:13:14;;;;;;;10.90;9.17;;;;;;;;;;5007046;28;21002;-56
2021/12/26 09:15:41;;;;;;;10.13;8.63;;;;;;;;;;5004607;28;20300;-57
2021/12/26 09:18:07;;;;;;;12.27;9.90;;;;;;;;;;5005222;28;20279;-56
2021/12/26 09:20:33;;;;;;;11.13;9.27;;;;;;;;;;4995916;28;20611;-56
2021/12/26 09:22:59;;;;;;;10.97;9.17;;;;;;;;;;5001218;28;20393;-57
2021/12/26 09:25:25;;;;;;;12.20;9.77;;;;;;;;;;5003663;28;20228;-57
2021/12/26 09:27:51;;;;;;;11.23;9.13;;;;;;;;;;5004987;28;20318;-57
2021/12/26 09:30:17;;;;;;;11.53;9.67;;;;;;;;;;5004757;28;20279;-56
2021/12/26 09:32:43;;;;;;;11.20;9.33;;;;;;;;;;5011078;28;20233;-57
2021/12/26 09:35:09;;;;;;;12.37;9.80;;;;;;;;;;5012206;28;22360;-56
2021/12/26 09:37:35;;;;;;;11.33;9.30;;;;;;;;;;5013843;28;20298;-56
2021/12/26 09:40:01;;;;;;;11.60;9.50;;;;;;;;;;5000205;28;20979;-57
2021/12/26 09:42:28;;;;;;;12.17;9.90;;;;;;;;;;5003571;28;20237;-57
2021/12/26 09:44:54;;;;;;;10.47;8.57;;;;;;;;;;5001150;28;20604;-57
2021/12/26 09:47:20;;;;;;;11.87;8.93;;;;;;;;;;5009361;28;20318;-57
2021/12/26 09:49:46;;;;;;;10.73;9.17;;;;;;;;;;5013625;28;20587;-57
2021/12/26 09:52:12;;;;;;;12.43;9.23;;;;;;;;;;5015328;28;20263;-57
2021/12/26 09:54:38;;;;;;;10.63;9.00;;;;;;;;;;5013487;28;20993;-57
2021/12/26 09:57:05;;;;;;;11.13;9.43;;;;;;;;;;4992224;28;20239;-57
2021/12/26 09:59:31;;;;;;;10.03;8.93;;;;;;;;;;4988540;28;20228;-56
2021/12/26 10:02:00;;;;;;;11.33;9.90;;;;;;;;;;5004418;28;20322;-57
2021/12/26 10:04:27;;;;;;;11.07;9.43;;;;;;;;;;4999625;28;20237;-57
2021/12/26 10:06:57;;;;;;;11.37;9.50;;;;;;;;;;4996410;28;20592;-57
2021/12/26 10:09:23;;;;;;;11.43;9.50;;;;;;;;;;5003362;28;20780;-57
2021/12/26 10:11:50;;;;;;;11.60;10.40;;;;;;;;;;4995578;28;20271;-56
2021/12/26 10:14:17;;;;;;;10.80;9.40;;;;;;;;;;4996174;28;20247;-57
2021/12/26 10:16:53;;;;;;;10.17;9.07;;;;;;;;;;5004796;28;20235;-56
2021/12/26 10:19:19;;;;;;;12.27;9.77;;;;;;;;;;4999346;28;20232;-57
2021/12/26 10:21:47;;;;;;;13.03;9.53;;;;;;;;;;5008477;28;20238;-57
2021/12/26 10:24:13;;;;;;;12.03;10.13;;;;;;;;;;5010078;28;21028;-57
2021/12/26 10:26:40;;;;;;;11.50;9.63;;;;;;;;;;5005198;28;20243;-57
2021/12/26 10:29:11;;;;;;;16.60;10.20;;;;;;;;;;4999256;28;20260;-57
2021/12/26 10:31:38;;;;;;;12.93;10.20;;;;;;;;;;5001419;28;20611;-57
2021/12/26 10:34:04;;;;;;;11.27;9.67;;;;;;;;;;5008638;28;20240;-56
2021/12/26 10:36:30;;;;;;;12.73;10.63;;;;;;;;;;5001352;28;20508;-57
2021/12/26 10:39:09;;;;;;;12.23;9.97;;;;;;;;;;5005200;28;20346;-57
2021/12/26 10:41:42;;;;;;;11.27;9.50;;;;;;;;;;4996202;28;20236;-57
2021/12/26 10:44:09;;;;;;;13.90;9.77;;;;;;;;;;5004796;28;21230;-57
2021/12/26 10:46:35;;;;;;;12.33;10.03;;;;;;;;;;4999655;28;20857;-56
2021/12/26 10:49:19;;;;;;;11.57;9.83;;;;;;;;;;5000996;28;20624;-57
2021/12/26 10:51:45;;;;;;;11.97;10.10;;;;;;;;;;5005305;28;20224;-57
2021/12/26 10:54:12;;;;;;;11.23;10.00;;;;;;;;;;5008951;28;20705;-57
2021/12/26 10:56:38;;;;;;;10.73;9.63;;;;;;;;;;5004957;28;20949;-57
2021/12/26 10:59:17;;;;;;;11.63;9.50;;;;;;;;;;5000730;28;20308;-57
2021/12/26 11:01:43;;;;;;;11.70;9.70;;;;;;;;;;5000668;28;20944;-57
2021/12/26 11:04:11;;;;;;;10.43;9.30;;;;;;;;;;5006458;28;20243;-57
2021/12/26 11:06:57;;;;;;;11.27;9.63;;;;;;;;;;4997624;28;20232;-57
2021/12/26 11:09:24;;;;;;;12.13;9.73;;;;;;;;;;5001806;28;20237;-56
2021/12/26 11:12:06;;;;;;;9.70;8.70;;;;;;;;;;4984010;28;20236;-57
2021/12/26 11:14:32;;;;;;;10.37;9.13;;;;;;;;;;4999466;28;20728;-57
2021/12/26 11:16:58;;;;;;;11.13;9.63;;;;;;;;;;4998010;28;20283;-56
2021/12/26 11:19:46;;;;;;;10.97;8.87;;;;;;;;;;4991978;28;20994;-57
2021/12/26 11:22:12;;;;;;;11.70;9.13;;;;;;;;;;4995267;28;20255;-57
2021/12/26 11:24:38;;;;;;;10.30;9.20;;;;;;;;;;4998698;28;20229;-57
2021/12/26 11:27:04;;;;;;;10.80;8.83;;;;;;;;;;4981024;28;20656;-57
2021/12/26 11:29:30;;;;;;;11.07;9.00;;;;;;;;;;4998826;28;21097;-57
2021/12/26 11:31:56;;;;;;;10.43;9.13;;;;;;;;;;5004716;28;20279;-57
2021/12/26 11:34:22;;;;;;;9.73;8.70;;;;;;;;;;5006670;28;20232;-57
2021/12/26 11:36:51;;;;;;;11.90;9.43;;;;;;;;;;5014861;28;20363;-57
2021/12/26 11:39:18;;;;;;;10.43;8.90;;;;;;;;;;5007706;28;20678;-57
2021/12/26 11:42:03;;;;;;;10.13;8.77;;;;;;;;;;5002061;28;20255;-57
2021/12/26 11:44:35;;;;;;;9.97;8.53;;;;;;;;;;5013050;28;20328;-57
2021/12/26 11:47:07;;;;;;;11.57;9.73;;;;;;;;;;5000342;28;20737;-57
2021/12/26 11:49:43;;;;;;;10.47;9.37;;;;;;;;;;5008544;28;20243;-57
2021/12/26 11:52:09;;;;;;;11.23;9.43;;;;;;;;;;5008001;28;22609;-57
2021/12/26 11:54:54;;;;;;;10.67;9.23;;;;;;;;;;5009955;28;20243;-57
2021/12/26 11:57:41;;;;;;;10.80;9.10;;;;;;;;;;4999624;28;20230;-57
2021/12/26 12:00:13;;;;;;;12.50;9.40;;;;;;;;;;5004144;28;20236;-57
2021/12/26 12:02:46;;;;;;;11.83;9.80;;;;;;;;;;5000642;28;20235;-57
2021/12/26 12:05:47;;;;;;;10.20;9.20;;;;;;;;;;4994970;28;20235;-57
2021/12/26 12:08:14;;;;;;;10.97;8.97;;;;;;;;;;4979867;28;20234;-57
2021/12/26 12:10:49;;;;;;;10.73;9.07;;;;;;;;;;4985240;28;20243;-56
2021/12/26 12:13:35;;;;;;;11.83;9.33;;;;;;;;;;5000860;28;20238;-56
2021/12/26 12:16:01;;;;;;;9.80;8.77;;;;;;;;;;4992099;28;20255;-56
2021/12/26 12:18:31;;;;;;;10.63;9.47;;;;;;;;;;5001884;28;20258;-57
2021/12/26 12:21:09;;;;;;;9.57;8.57;;;;;;;;;;4989568;28;20870;-57
2021/12/26 12:23:36;;;;;;;9.97;8.90;;;;;;;;;;4993853;28;20963;-57
2021/12/26 12:26:02;;;;;;;10.17;8.43;;;;;;;;;;4989096;28;20264;-57
2021/12/26 12:28:29;;;;;;;10.00;8.57;;;;;;;;;;4987583;28;20247;-57
2021/12/26 12:31:10;;;;;;;8.97;8.07;;;;;;;;;;4994238;28;20770;-56
2021/12/26 12:33:37;;;;;;;9.27;8.23;;;;;;;;;;4998790;28;20257;-57
2021/12/26 12:36:08;;;;;;;9.23;8.33;;;;;;;;;;4988911;28;20289;-57
2021/12/26 12:38:41;;;;;;;9.20;7.87;;;;;;;;;;4988071;28;20247;-57
2021/12/26 12:41:27;;;;;;;9.80;8.30;;;;;;;;;;4991820;28;20250;-57
2021/12/26 12:43:53;;;;;;;9.33;8.33;;;;;;;;;;4988179;28;20228;-56
2021/12/26 12:46:19;;;;;;;11.23;9.83;;;;;;;;;;4984969;28;20239;-55
2021/12/26 12:48:50;;;;;;;9.67;8.43;;;;;;;;;;4991822;28;20740;-55
2021/12/26 12:51:18;;;;;;;10.43;8.77;;;;;;;;;;4999122;28;20570;-55
2021/12/26 12:53:45;;;;;;;11.60;8.83;;;;;;;;;;4999329;28;20242;-55
2021/12/26 12:56:29;;;;;;;9.37;8.10;;;;;;;;;;5002225;28;21453;-55
2021/12/26 12:59:14;;;;;;;9.17;7.90;;;;;;;;;;4998715;28;20228;-55
2021/12/26 13:01:44;;;;;;;9.73;8.73;;;;;;;;;;5004258;28;21511;-56
2021/12/26 13:04:10;;;;;;;8.93;7.90;;;;;;;;;;5002288;28;20788;-56
2021/12/26 13:06:36;;;;;;;10.83;8.57;;;;;;;;;;5008407;28;20284;-56
2021/12/26 13:09:02;;;;;;;8.67;7.77;;;;;;;;;;5002959;28;23608;-55
2021/12/26 13:11:30;;;;;;;10.80;8.47;;;;;;;;;;5003561;28;20236;-55
2021/12/26 13:14:00;;;;;;;9.50;8.33;;;;;;;;;;4992689;28;20710;-55
2021/12/26 13:16:30;;;;;;;9.37;8.33;;;;;;;;;;4997663;28;20228;-55
2021/12/26 13:18:56;;;;;;;9.17;8.13;;;;;;;;;;5006477;28;21987;-55
2021/12/26 13:21:22;;;;;;;9.63;8.60;;;;;;;;;;5006476;28;20517;-56
2021/12/26 13:23:47;;;;;;;10.73;9.00;;;;;;;;;;4983393;28;20644;-55
2021/12/26 13:26:13;;;;;;;9.50;8.03;;;;;;;;;;4980059;28;20234;-56
2021/12/26 13:28:39;;;;;;;9.93;8.00;;;;;;;;;;4998131;28;20331;-56
2021/12/26 13:31:24;;;;;;;9.83;8.53;;;;;;;;;;5001769;28;20224;-55
2021/12/26 13:33:54;;;;;;;12.50;9.13;;;;;;;;;;4990704;28;20883;-56
2021/12/26 13:36:21;;;;;;;12.07;8.67;;;;;;;;;;5004850;28;20710;-56
2021/12/26 13:38:47;;;;;;;11.00;8.63;;;;;;;;;;5005309;28;20228;-56
2021/12/26 13:41:13;;;;;;;9.23;8.27;;;;;;;;;;5000188;28;20247;-56
2021/12/26 13:43:41;;;;;;;11.27;8.60;;;;;;;;;;5005333;28;20232;-56
2021/12/26 13:46:07;;;;;;;8.93;7.60;;;;;;;;;;4997168;28;20453;-56
2021/12/26 13:48:34;;;;;;;9.27;8.10;;;;;;;;;;5003812;28;20232;-56
2021/12/26 13:51:19;;;;;;;8.50;7.40;;;;;;;;;;5009291;28;20242;-55
2021/12/26 13:53:46;;;;;;;9.27;8.33;;;;;;;;;;5006566;28;20231;-56
2021/12/26 13:56:12;;;;;;;9.60;8.23;;;;;;;;;;4999190;28;20716;-56
2021/12/26 13:58:39;;;;;;;9.87;8.03;;;;;;;;;;5004118;28;20225;-56
2021/12/26 14:01:05;;;;;;;9.13;8.03;;;;;;;;;;5015704;28;21408;-56
2021/12/26 14:03:31;;;;;;;9.10;7.93;;;;;;;;;;5011298;28;20230;-56
2021/12/26 14:05:57;;;;;;;9.80;8.60;;;;;;;;;;5015952;28;20719;-56
2021/12/26 14:08:24;;;;;;;9.47;8.47;;;;;;;;;;5011657;28;20829;-56
2021/12/26 14:11:23;;;;;;;9.03;7.83;;;;;;;;;;5005124;28;20232;-57
2021/12/26 14:13:50;;;;;;;9.50;8.40;;;;;;;;;;4961316;28;20233;-56
2021/12/26 14:16:43;;;;;;;10.70;8.80;;;;;;;;;;5007453;28;20241;-56
2021/12/26 14:19:10;;;;;;;9.93;8.53;;;;;;;;;;5009914;28;20612;-56
2021/12/26 14:21:50;;;;;;;9.13;7.73;;;;;;;;;;5003665;28;20458;-55
2021/12/26 14:24:20;;;;;;;10.50;8.10;;;;;;;;;;5011411;28;20580;-56
2021/12/26 14:26:46;;;;;;;10.90;8.47;;;;;;;;;;5007837;28;20235;-56
2021/12/26 14:29:17;;;;;;;10.40;8.83;;;;;;;;;;5007181;28;20225;-57
2021/12/26 14:31:50;;;;;;;10.60;8.53;;;;;;;;;;4995787;28;20239;-56
2021/12/26 14:34:25;;;;;;;10.00;8.63;;;;;;;;;;4990090;28;20232;-56
2021/12/26 14:36:51;;;;;;;11.13;8.77;;;;;;;;;;4996280;28;20333;-57
2021/12/26 14:39:18;;;;;;;9.97;8.63;;;;;;;;;;4999088;28;20233;-56
2021/12/26 14:41:47;;;;;;;10.27;8.40;;;;;;;;;;5007719;28;20327;-57
2021/12/26 14:44:13;;;;;;;9.13;7.93;;;;;;;;;;5002218;28;20994;-57